createdAt,value
2023-11-15T00:00:07.631Z,2.78
2023-11-15T00:02:35.904Z,2.40
2023-11-15T00:05:04.225Z,2.47
2023-11-15T00:07:32.058Z,1.83
2023-11-15T00:09:58.811Z,2.80
2023-11-15T00:12:28.278Z,2.13
2023-11-15T00:14:55.070Z,2.08
2023-11-15T00:17:21.794Z,1.95
2023-11-15T00:19:48.867Z,1.77
2023-11-15T00:22:18.668Z,1.90
2023-11-15T00:24:45.668Z,2.03
2023-11-15T00:27:12.581Z,2.15
2023-11-15T00:29:39.378Z,2.00
2023-11-15T00:32:06.514Z,1.90
2023-11-15T00:34:33.487Z,2.00
2023-11-15T00:37:00.941Z,2.08
2023-11-15T00:39:29.301Z,3.83
2023-11-15T00:41:56.659Z,1.83
2023-11-15T00:44:23.322Z,2.58
2023-11-15T00:46:49.948Z,2.15
2023-11-15T00:49:16.630Z,2.78
2023-11-15T00:51:43.235Z,2.50
2023-11-15T00:54:09.855Z,2.63
2023-11-15T00:56:37.054Z,2.75
2023-11-15T00:59:04.200Z,2.58
2023-11-15T01:01:30.950Z,2.00
2023-11-15T01:03:57.919Z,1.98
2023-11-15T01:06:26.167Z,1.92
2023-11-15T01:08:58.444Z,3.00
2023-11-15T01:11:28.987Z,2.23
2023-11-15T01:13:55.999Z,2.63
2023-11-15T01:16:25.876Z,2.20
2023-11-15T01:18:54.455Z,2.63
2023-11-15T01:21:21.405Z,2.60
2023-11-15T01:23:48.288Z,2.38
2023-11-15T01:26:15.001Z,2.20
2023-11-15T01:28:42.162Z,2.33
2023-11-15T01:31:08.825Z,2.83
2023-11-15T01:33:35.579Z,2.30
2023-11-15T01:36:02.205Z,1.85
2023-11-15T01:38:30.750Z,2.13
2023-11-15T01:40:57.539Z,2.67
2023-11-15T01:43:24.344Z,3.92
2023-11-15T01:45:52.370Z,2.40
2023-11-15T01:48:19.412Z,2.20
2023-11-15T01:50:47.943Z,1.80
2023-11-15T01:53:15.602Z,2.17
2023-11-15T01:55:44.660Z,2.35
2023-11-15T01:58:11.432Z,2.45
2023-11-15T02:00:38.190Z,2.53
2023-11-15T02:03:05.010Z,1.73
2023-11-15T02:05:31.867Z,1.95
2023-11-15T02:07:58.663Z,1.80
2023-11-15T02:10:25.952Z,1.70
2023-11-15T02:12:52.683Z,2.30
2023-11-15T02:15:22.513Z,1.70
2023-11-15T02:17:50.160Z,2.00
2023-11-15T02:20:17.652Z,1.73
2023-11-15T02:22:49.900Z,1.88
2023-11-15T02:25:17.950Z,1.95
2023-11-15T02:27:44.852Z,1.88
2023-11-15T02:30:12.571Z,1.63
2023-11-15T02:32:41.254Z,1.90
2023-11-15T02:35:08.976Z,2.00
2023-11-15T02:37:36.309Z,1.95
2023-11-15T02:40:06.296Z,2.05
2023-11-15T02:42:34.200Z,2.20
2023-11-15T02:45:01.249Z,2.38
2023-11-15T02:47:28.518Z,2.05
2023-11-15T02:49:55.176Z,2.30
2023-11-15T02:52:22.435Z,2.15
2023-11-15T02:54:49.829Z,2.05
2023-11-15T02:57:16.428Z,2.55
2023-11-15T02:59:43.111Z,2.00
2023-11-15T03:02:09.717Z,1.98
2023-11-15T03:04:36.319Z,2.45
2023-11-15T03:07:03.016Z,1.50
2023-11-15T03:09:29.618Z,2.47
2023-11-15T03:11:56.439Z,1.50
2023-11-15T03:14:23.154Z,1.98
2023-11-15T03:16:49.821Z,1.70
2023-11-15T03:19:16.507Z,1.98
2023-11-15T03:21:43.132Z,1.65
2023-11-15T03:24:09.874Z,1.92
2023-11-15T03:26:36.929Z,1.92
2023-11-15T03:29:03.775Z,2.17
2023-11-15T03:31:32.043Z,1.70
2023-11-15T03:34:00.020Z,1.55
2023-11-15T03:36:26.796Z,1.88
2023-11-15T03:38:54.035Z,1.50
2023-11-15T03:41:20.674Z,1.33
2023-11-15T03:43:47.306Z,1.50
2023-11-15T03:46:14.029Z,1.42
2023-11-15T03:48:40.705Z,1.40
2023-11-15T03:51:07.491Z,1.20
2023-11-15T03:53:34.301Z,1.33
2023-11-15T03:56:00.930Z,1.30
2023-11-15T03:58:27.602Z,1.20
2023-11-15T04:00:57.963Z,2.03
2023-11-15T04:03:24.847Z,1.42
2023-11-15T04:05:51.632Z,1.30
2023-11-15T04:08:18.389Z,1.48
2023-11-15T04:10:45.852Z,1.55
2023-11-15T04:13:12.547Z,1.75
2023-11-15T04:15:39.178Z,1.70
2023-11-15T04:18:06.433Z,1.30
2023-11-15T04:20:33.174Z,1.60
2023-11-15T04:22:59.806Z,1.73
2023-11-15T04:25:26.391Z,1.77
2023-11-15T04:27:53.069Z,1.92
2023-11-15T04:30:19.819Z,2.35
2023-11-15T04:32:47.461Z,2.55
2023-11-15T04:35:14.542Z,1.60
2023-11-15T04:37:41.287Z,1.67
2023-11-15T04:40:08.801Z,2.35
2023-11-15T04:42:35.495Z,1.70
2023-11-15T04:45:03.246Z,1.60
2023-11-15T04:47:31.566Z,2.05
2023-11-15T04:49:58.322Z,2.22
2023-11-15T04:52:24.901Z,2.20
2023-11-15T04:54:51.614Z,1.50
2023-11-15T04:57:24.484Z,2.45
2023-11-15T04:59:56.276Z,1.80
2023-11-15T05:02:29.976Z,2.63
2023-11-15T05:04:56.888Z,1.60
2023-11-15T05:07:26.387Z,3.47
2023-11-15T05:09:53.109Z,2.17
2023-11-15T05:12:19.753Z,1.85
2023-11-15T05:14:46.535Z,2.10
2023-11-15T05:17:13.618Z,1.95
2023-11-15T05:19:40.392Z,1.95
2023-11-15T05:22:07.025Z,2.00
2023-11-15T05:24:33.813Z,2.00
2023-11-15T05:27:00.512Z,2.92
2023-11-15T05:29:27.281Z,1.85
2023-11-15T05:31:54.036Z,2.17
2023-11-15T05:34:20.716Z,2.28
2023-11-15T05:36:47.406Z,2.30
2023-11-15T05:39:14.144Z,1.83
2023-11-15T05:41:41.203Z,3.15
2023-11-15T05:44:08.005Z,2.17
2023-11-15T05:46:37.237Z,1.80
2023-11-15T05:49:04.216Z,2.00
2023-11-15T05:51:30.965Z,2.03
2023-11-15T05:53:57.711Z,2.13
2023-11-15T05:56:24.359Z,2.22
2023-11-15T05:58:51.002Z,2.03
2023-11-15T06:01:17.873Z,1.70
2023-11-15T06:03:44.807Z,2.20
2023-11-15T06:06:11.648Z,2.08
2023-11-15T06:08:38.887Z,1.92
2023-11-15T06:11:05.735Z,2.10
2023-11-15T06:13:32.346Z,2.72
2023-11-15T06:15:59.009Z,2.75
2023-11-15T06:18:25.785Z,1.92
2023-11-15T06:20:52.513Z,2.55
2023-11-15T06:23:19.155Z,2.28
2023-11-15T06:25:45.819Z,2.05
2023-11-15T06:28:12.542Z,1.88
2023-11-15T06:30:39.459Z,1.40
2023-11-15T06:33:06.312Z,1.65
2023-11-15T06:35:33.093Z,2.30
2023-11-15T06:38:02.453Z,1.60
2023-11-15T06:40:29.222Z,1.73
2023-11-15T06:42:55.909Z,1.52
2023-11-15T06:45:23.368Z,1.30
2023-11-15T06:47:54.821Z,1.40
2023-11-15T06:50:21.817Z,1.30
2023-11-15T06:52:48.451Z,1.60
2023-11-15T06:55:16.558Z,1.52
2023-11-15T06:57:44.980Z,2.10
2023-11-15T07:00:13.881Z,1.83
2023-11-15T07:02:43.850Z,2.10
2023-11-15T07:05:11.950Z,2.47
2023-11-15T07:07:38.882Z,1.92
2023-11-15T07:10:06.847Z,1.40
2023-11-15T07:12:37.265Z,2.40
2023-11-15T07:15:05.581Z,1.95
2023-11-15T07:17:33.277Z,1.40
2023-11-15T07:20:00.355Z,1.67
2023-11-15T07:22:27.107Z,1.30
2023-11-15T07:24:54.631Z,1.45
2023-11-15T07:27:21.293Z,1.33
2023-11-15T07:29:48.330Z,1.48
2023-11-15T07:32:14.977Z,1.35
2023-11-15T07:34:41.662Z,1.38
2023-11-15T07:37:09.341Z,1.45
2023-11-15T07:39:35.984Z,1.45
2023-11-15T07:42:03.095Z,2.38
2023-11-15T07:44:31.729Z,2.85
2023-11-15T07:47:00.493Z,2.35
2023-11-15T07:49:28.197Z,2.53
2023-11-15T07:51:54.914Z,2.15
2023-11-15T07:54:22.434Z,3.22
2023-11-15T07:56:49.125Z,2.33
2023-11-15T07:59:16.232Z,2.53
2023-11-15T08:01:46.970Z,2.20
2023-11-15T08:04:15.992Z,2.75
2023-11-15T08:06:44.695Z,1.83
2023-11-15T08:09:26.276Z,1.80
2023-11-15T08:11:55.075Z,1.77
2023-11-15T08:14:22.860Z,1.90
2023-11-15T08:16:52.980Z,2.70
2023-11-15T08:19:19.922Z,1.65
2023-11-15T08:21:48.462Z,2.00
2023-11-15T08:24:22.428Z,2.00
2023-11-15T08:26:56.699Z,1.60
2023-11-15T08:29:23.848Z,1.50
2023-11-15T08:31:51.254Z,2.13
2023-11-15T08:34:22.535Z,1.65
2023-11-15T08:36:50.594Z,2.58
2023-11-15T08:39:18.126Z,2.33
2023-11-15T08:41:47.767Z,1.88
2023-11-15T08:44:15.126Z,2.15
2023-11-15T08:46:43.760Z,1.98
2023-11-15T08:49:15.371Z,2.47
2023-11-15T08:51:49.035Z,2.10
2023-11-15T08:54:15.706Z,2.38
2023-11-15T08:56:42.849Z,1.85
2023-11-15T08:59:15.696Z,1.98
2023-11-15T09:01:43.806Z,2.50
2023-11-15T09:04:13.811Z,2.20
2023-11-15T09:06:43.107Z,2.30
2023-11-15T09:09:09.916Z,3.20
2023-11-15T09:11:36.618Z,3.60
2023-11-15T09:14:03.439Z,3.72
2023-11-15T09:16:31.213Z,2.33
2023-11-15T09:19:00.562Z,1.80
2023-11-15T09:21:27.289Z,1.60
2023-11-15T09:23:54.033Z,2.08
2023-11-15T09:26:22.002Z,1.92
2023-11-15T09:28:49.977Z,1.90
2023-11-15T09:31:17.197Z,1.85
2023-11-15T09:33:45.223Z,1.70
2023-11-15T09:36:12.525Z,2.10
2023-11-15T09:38:42.746Z,1.75
2023-11-15T09:41:13.986Z,1.33
2023-11-15T09:43:43.359Z,1.90
2023-11-15T09:46:11.913Z,1.85
2023-11-15T09:48:52.958Z,2.08
2023-11-15T09:51:27.999Z,1.48
2023-11-15T09:54:05.205Z,1.70
2023-11-15T09:56:41.738Z,2.10
2023-11-15T10:01:44.065Z,1.90
2023-11-15T10:04:24.317Z,1.80
2023-11-15T10:07:00.775Z,1.75
2023-11-15T10:09:43.925Z,1.40
2023-11-15T10:12:11.735Z,1.67
2023-11-15T10:14:55.596Z,1.30
2023-11-15T10:17:39.565Z,1.60
2023-11-15T10:20:27.175Z,2.97
2023-11-15T10:22:54.582Z,1.67
2023-11-15T10:25:22.331Z,1.40
2023-11-15T10:27:52.100Z,1.52
2023-11-15T10:30:21.532Z,1.50
2023-11-15T10:32:50.847Z,1.33
2023-11-15T10:35:32.959Z,1.27
2023-11-15T10:38:00.089Z,1.23
2023-11-15T10:40:27.383Z,1.73
2023-11-15T10:42:56.363Z,1.38
2023-11-15T10:45:24.606Z,1.08
2023-11-15T10:48:04.062Z,1.10
2023-11-15T10:50:35.064Z,1.20
2023-11-15T10:53:03.451Z,1.20
2023-11-15T10:55:32.580Z,1.20
2023-11-15T10:58:03.436Z,1.23
2023-11-15T11:00:36.203Z,1.52
2023-11-15T11:03:03.474Z,1.40
2023-11-15T11:05:46.464Z,1.20
2023-11-15T11:08:20.014Z,1.17
2023-11-15T11:10:53.193Z,1.50
2023-11-15T11:15:47.346Z,1.40
2023-11-15T11:18:23.418Z,1.13
2023-11-15T11:21:03.669Z,1.40
2023-11-15T11:23:34.807Z,1.45
2023-11-15T11:26:33.905Z,1.45
2023-11-15T11:29:04.373Z,1.40
2023-11-15T11:31:31.565Z,1.70
2023-11-15T11:34:09.578Z,1.75
2023-11-15T11:36:51.522Z,1.60
2023-11-15T11:39:23.949Z,1.23
2023-11-15T11:41:50.983Z,1.70
2023-11-15T11:44:19.555Z,1.50
2023-11-15T11:47:02.760Z,1.60
2023-11-15T11:49:45.402Z,1.42
2023-11-15T11:52:15.085Z,1.73
2023-11-15T11:54:41.798Z,1.40
2023-11-15T11:57:08.682Z,1.92
2023-11-15T11:59:35.463Z,1.65
2023-11-15T12:02:02.134Z,1.60
2023-11-15T12:04:28.951Z,1.30
2023-11-15T12:06:56.339Z,1.50
2023-11-15T12:09:24.666Z,2.28
2023-11-15T12:11:51.543Z,1.30
2023-11-15T12:14:18.238Z,1.20
2023-11-15T12:16:45.335Z,1.42
2023-11-15T12:19:14.791Z,1.20
2023-11-15T12:21:45.064Z,1.55
2023-11-15T12:24:12.695Z,1.15
2023-11-15T12:26:45.388Z,1.20
2023-11-15T12:29:20.742Z,1.20
2023-11-15T12:31:53.450Z,1.77
2023-11-15T12:34:21.449Z,1.50
2023-11-15T12:36:48.715Z,1.40
2023-11-15T12:39:17.588Z,1.88
2023-11-15T12:41:51.589Z,2.05
2023-11-15T12:44:18.520Z,1.73
2023-11-15T12:46:45.644Z,2.13
2023-11-15T12:49:15.944Z,1.52
2023-11-15T12:51:49.913Z,1.50
2023-11-15T12:54:18.147Z,1.50
2023-11-15T12:56:45.928Z,1.33
2023-11-15T12:59:15.887Z,1.10
2023-11-15T13:01:47.360Z,1.30
2023-11-15T13:04:15.872Z,1.38
2023-11-15T13:06:43.541Z,1.20
2023-11-15T13:09:15.508Z,1.30
2023-11-15T13:11:46.996Z,1.90
2023-11-15T13:14:17.148Z,1.17
2023-11-15T13:16:43.930Z,1.70
2023-11-15T13:19:10.790Z,1.67
2023-11-15T13:21:38.179Z,1.60
2023-11-15T13:24:05.064Z,1.38
2023-11-15T13:26:31.875Z,1.55
2023-11-15T13:28:58.479Z,1.60
2023-11-15T13:31:26.101Z,1.40
2023-11-15T13:33:56.689Z,1.60
2023-11-15T13:36:25.477Z,1.60
2023-11-15T13:38:53.300Z,1.30
2023-11-15T13:41:24.703Z,1.30
2023-11-15T13:43:53.888Z,1.40
2023-11-15T13:46:23.938Z,1.40
2023-11-15T13:48:53.034Z,1.52
2023-11-15T13:51:19.962Z,1.75
2023-11-15T13:53:46.767Z,1.30
2023-11-15T13:56:14.050Z,1.40
2023-11-15T13:58:41.379Z,1.33
2023-11-15T14:01:09.269Z,1.48
2023-11-15T14:03:36.049Z,1.65
2023-11-15T14:06:06.487Z,1.70
2023-11-15T14:08:51.366Z,1.48
2023-11-15T14:11:25.755Z,1.80
2023-11-15T14:13:52.535Z,1.65
2023-11-15T14:16:20.900Z,1.30
2023-11-15T14:18:48.989Z,1.60
2023-11-15T14:21:15.958Z,1.40
2023-11-15T14:23:42.685Z,1.30
2023-11-15T14:26:09.876Z,1.42
2023-11-15T14:28:37.003Z,1.25
2023-11-15T14:31:04.232Z,1.33
2023-11-15T14:33:32.882Z,1.35
2023-11-15T14:35:59.917Z,1.30
2023-11-15T14:38:26.601Z,1.70
2023-11-15T14:40:53.791Z,1.60
2023-11-15T14:43:20.796Z,1.15
2023-11-15T14:45:48.025Z,1.70
2023-11-15T14:48:15.106Z,1.10
2023-11-15T14:50:43.212Z,1.10
2023-11-15T14:53:20.154Z,1.40
2023-11-15T14:55:47.969Z,1.60
2023-11-15T14:58:15.490Z,1.38
2023-11-15T15:00:42.696Z,1.27
2023-11-15T15:03:12.800Z,1.50
2023-11-15T15:05:40.923Z,1.23
2023-11-15T15:08:13.101Z,1.55
2023-11-15T15:10:39.952Z,1.40
2023-11-15T15:13:10.844Z,1.40
2023-11-15T15:15:39.157Z,1.77
2023-11-15T15:18:08.843Z,1.40
2023-11-15T15:20:40.685Z,1.67
2023-11-15T15:23:07.383Z,1.38
2023-11-15T15:25:35.410Z,1.33
2023-11-15T15:28:01.999Z,1.10
2023-11-15T15:30:33.882Z,1.30
2023-11-15T15:33:02.382Z,1.02
2023-11-15T15:35:30.142Z,1.17
2023-11-15T15:37:57.030Z,1.10
2023-11-15T15:40:27.697Z,1.20
2023-11-15T15:42:54.755Z,1.13
2023-11-15T15:45:21.696Z,1.52
2023-11-15T15:47:49.519Z,1.33
2023-11-15T15:50:16.694Z,1.38
2023-11-15T15:52:44.459Z,1.40
2023-11-15T15:55:14.649Z,1.75
2023-11-15T15:57:42.363Z,1.20
2023-11-15T16:00:10.251Z,1.30
2023-11-15T16:02:37.409Z,1.48
2023-11-15T16:05:07.826Z,1.38
2023-11-15T16:07:35.108Z,1.48
2023-11-15T16:10:02.879Z,1.70
2023-11-15T16:12:29.992Z,1.60
2023-11-15T16:14:58.494Z,2.10
2023-11-15T16:17:26.563Z,2.13
2023-11-15T16:19:57.301Z,1.52
2023-11-15T16:22:25.346Z,1.65
2023-11-15T16:24:51.968Z,1.70
2023-11-15T16:27:22.459Z,2.15
2023-11-15T16:29:52.556Z,2.20
2023-11-15T16:32:19.493Z,2.58
2023-11-15T16:34:48.181Z,2.85
2023-11-15T16:37:14.956Z,2.30
2023-11-15T16:39:41.750Z,2.65
2023-11-15T16:42:09.207Z,2.70
2023-11-15T16:44:37.348Z,2.83
2023-11-15T16:47:04.903Z,2.30
2023-11-15T16:49:31.586Z,2.58
2023-11-15T16:51:59.628Z,2.95
2023-11-15T16:54:26.958Z,3.25
2023-11-15T16:56:53.901Z,2.92
2023-11-15T16:59:20.529Z,3.70
2023-11-15T17:01:47.564Z,3.10
2023-11-15T17:04:14.434Z,3.53
2023-11-15T17:06:42.022Z,3.22
2023-11-15T17:09:09.190Z,3.40
2023-11-15T17:11:36.059Z,2.90
2023-11-15T17:14:04.887Z,2.95
2023-11-15T17:16:32.598Z,2.80
2023-11-15T17:18:59.813Z,2.80
2023-11-15T17:21:27.263Z,4.47
2023-11-15T17:23:54.423Z,4.28
2023-11-15T17:26:21.574Z,5.10
2023-11-15T17:28:48.387Z,4.50
2023-11-15T17:31:15.093Z,4.57
2023-11-15T17:33:42.505Z,4.75
2023-11-15T17:36:10.345Z,5.03
2023-11-15T17:38:37.145Z,4.20
2023-11-15T17:41:05.101Z,4.45
2023-11-15T17:43:31.849Z,4.90
2023-11-15T17:45:58.535Z,4.82
2023-11-15T17:48:25.257Z,4.30
2023-11-15T17:50:52.015Z,3.95
2023-11-15T17:53:19.049Z,3.70
2023-11-15T17:55:45.858Z,3.40
2023-11-15T17:58:12.537Z,3.40
2023-11-15T18:00:39.758Z,3.40
2023-11-15T18:03:06.917Z,3.47
2023-11-15T18:05:33.836Z,3.40
2023-11-15T18:08:00.528Z,3.13
2023-11-15T18:10:29.905Z,3.47
2023-11-15T18:12:58.032Z,4.03
2023-11-15T18:15:25.686Z,2.90
2023-11-15T18:17:54.782Z,3.22
2023-11-15T18:20:22.551Z,3.00
2023-11-15T18:22:50.669Z,2.85
2023-11-15T18:25:18.012Z,3.00
2023-11-15T18:27:45.121Z,2.70
2023-11-15T18:30:15.484Z,2.85
2023-11-15T18:32:48.405Z,2.47
2023-11-15T18:35:15.421Z,3.00
2023-11-15T18:37:43.685Z,2.83
2023-11-15T18:40:13.223Z,2.72
2023-11-15T18:42:40.811Z,3.13
2023-11-15T18:45:10.957Z,2.50
2023-11-15T18:47:40.507Z,2.80
2023-11-15T18:50:12.188Z,2.42
2023-11-15T18:52:42.281Z,2.40
2023-11-15T18:55:18.950Z,2.03
2023-11-15T18:57:46.489Z,2.58
2023-11-15T19:00:16.603Z,2.35
2023-11-15T19:02:47.084Z,2.92
2023-11-15T19:05:17.724Z,2.92
2023-11-15T19:07:45.489Z,3.50
2023-11-15T19:10:15.216Z,3.88
2023-11-15T19:12:43.063Z,3.92
2023-11-15T19:15:13.276Z,4.18
2023-11-15T19:17:41.860Z,3.92
2023-11-15T19:20:11.170Z,4.18
2023-11-15T19:22:38.655Z,4.28
2023-11-15T19:25:06.430Z,4.45
2023-11-15T19:27:35.235Z,4.25
2023-11-15T19:30:02.862Z,3.65
2023-11-15T19:32:29.700Z,3.40
2023-11-15T19:34:56.904Z,3.58
2023-11-15T19:37:23.683Z,3.60
2023-11-15T19:39:50.344Z,2.90
2023-11-15T19:42:17.032Z,2.95
2023-11-15T19:44:44.300Z,2.70
2023-11-15T19:47:11.032Z,3.20
2023-11-15T19:49:37.822Z,3.53
2023-11-15T19:52:12.726Z,2.67
2023-11-15T19:54:39.623Z,3.80
2023-11-15T19:57:06.749Z,3.40
2023-11-15T19:59:36.443Z,3.38
2023-11-15T20:02:03.359Z,4.40
2023-11-15T20:04:32.992Z,4.20
2023-11-15T20:07:00.999Z,3.55
2023-11-15T20:09:33.673Z,3.50
2023-11-15T20:12:00.694Z,3.90
2023-11-15T20:14:27.693Z,3.22
2023-11-15T20:16:54.554Z,4.03
2023-11-15T20:19:21.317Z,3.40
2023-11-15T20:21:49.911Z,3.10
2023-11-15T20:24:21.155Z,3.38
2023-11-15T20:26:49.733Z,3.75
2023-11-15T20:29:17.477Z,3.80
2023-11-15T20:31:44.382Z,3.53
2023-11-15T20:34:11.668Z,3.28
2023-11-15T20:36:39.326Z,2.90
2023-11-15T20:39:21.684Z,3.00
2023-11-15T20:41:51.618Z,3.00
2023-11-15T20:44:18.517Z,2.70
2023-11-15T20:46:48.751Z,2.70
2023-11-15T20:49:15.695Z,2.58
2023-11-15T20:51:50.468Z,3.00
2023-11-15T20:54:18.849Z,2.53
2023-11-15T20:56:45.977Z,2.58
2023-11-15T20:59:13.550Z,2.58
2023-11-15T21:01:41.006Z,2.95
2023-11-15T21:04:12.169Z,2.42
2023-11-15T21:06:39.055Z,2.55
2023-11-15T21:09:10.316Z,3.08
2023-11-15T21:11:41.669Z,2.13
2023-11-15T21:14:09.130Z,2.40
2023-11-15T21:16:37.523Z,2.20
2023-11-15T21:19:05.433Z,2.60
2023-11-15T21:21:34.236Z,2.20
2023-11-15T21:24:02.472Z,2.92
2023-11-15T21:26:29.402Z,2.13
2023-11-15T21:28:59.978Z,2.00
2023-11-15T21:31:27.069Z,2.15
2023-11-15T21:33:54.016Z,1.88
2023-11-15T21:36:20.872Z,2.15
2023-11-15T21:38:47.640Z,1.98
2023-11-15T21:41:14.996Z,1.92
2023-11-15T21:43:41.697Z,1.70
2023-11-15T21:46:08.671Z,1.60
2023-11-15T21:48:35.989Z,1.88
2023-11-15T21:51:02.899Z,1.60
2023-11-15T21:53:32.743Z,2.00
2023-11-15T21:56:03.796Z,2.25
2023-11-15T21:58:30.783Z,1.80
2023-11-15T22:00:57.539Z,1.90
2023-11-15T22:03:27.371Z,2.13
2023-11-15T22:05:54.301Z,2.03
2023-11-15T22:08:21.153Z,2.20
2023-11-15T22:10:47.897Z,2.25
2023-11-15T22:13:14.609Z,2.17
2023-11-15T22:15:41.346Z,3.17
2023-11-15T22:18:08.271Z,2.42
2023-11-15T22:20:35.969Z,2.10
2023-11-15T22:23:03.172Z,2.40
2023-11-15T22:25:29.787Z,2.60
2023-11-15T22:27:56.574Z,2.35
2023-11-15T22:30:23.566Z,2.20
2023-11-15T22:32:50.240Z,2.60
2023-11-15T22:35:17.000Z,2.13
2023-11-15T22:37:43.695Z,2.30
2023-11-15T22:40:11.124Z,2.80
2023-11-15T22:42:38.323Z,2.33
2023-11-15T22:45:06.200Z,2.17
2023-11-15T22:47:32.878Z,1.70
2023-11-15T22:49:59.537Z,2.05
2023-11-15T22:52:26.134Z,2.03
2023-11-15T22:54:52.833Z,2.00
2023-11-15T22:57:19.489Z,2.40
2023-11-15T22:59:47.690Z,2.42
2023-11-15T23:02:16.239Z,2.55
2023-11-15T23:04:44.199Z,2.17
2023-11-15T23:07:11.128Z,2.50
2023-11-15T23:09:37.987Z,2.47
2023-11-15T23:12:04.796Z,2.30
2023-11-15T23:14:31.992Z,2.60
2023-11-15T23:16:58.984Z,2.28
2023-11-15T23:19:25.658Z,2.20
2023-11-15T23:21:59.350Z,2.55
2023-11-15T23:24:30.318Z,2.58
2023-11-15T23:27:00.922Z,2.10
2023-11-15T23:29:29.452Z,2.60
2023-11-15T23:31:57.251Z,2.22
2023-11-15T23:34:24.300Z,3.10
2023-11-15T23:36:51.622Z,2.47
2023-11-15T23:39:19.208Z,2.35
2023-11-15T23:41:45.966Z,2.50
2023-11-15T23:44:12.618Z,2.35
2023-11-15T23:46:39.317Z,2.60
2023-11-15T23:49:07.690Z,2.58
2023-11-15T23:51:34.635Z,2.47
2023-11-15T23:54:01.475Z,2.50
2023-11-15T23:56:28.140Z,2.58
2023-11-15T23:58:54.762Z,2.22
